Time;durP1;ratioP1;P1;durP2;ratioP2;P2;SDS_P1;SDS_P2;PMS_P1;PMS_P2;Temp;Humidity;BMP_temperature;BMP_pressure;BME280_temperature;BME280_humidity;BME280_pressure;Samples;Min_cycle;Max_cycle;Signal;HPM_P1;HPM_P2
2023/03/04 00:01:36;;;;;;;21.80;4.40;;;;;;;5.75;100.00;102090.53;4973847;28;20266;-69
2023/03/04 00:04:01;;;;;;;13.27;4.20;;;;;;;5.77;100.00;102083.00;4967046;28;20225;-70
2023/03/04 00:06:27;;;;;;;19.00;4.13;;;;;;;5.78;100.00;102085.63;4969576;28;20235;-69
2023/03/04 00:08:52;;;;;;;18.07;3.90;;;;;;;5.79;100.00;102089.94;4973215;28;20224;-69
2023/03/04 00:11:17;;;;;;;17.43;3.47;;;;;;;5.79;100.00;102081.41;4972856;28;20228;-68
2023/03/04 00:13:43;;;;;;;17.60;3.73;;;;;;;5.82;100.00;102074.91;4969827;28;20219;-69
2023/03/04 00:16:08;;;;;;;16.53;3.53;;;;;;;5.84;100.00;102082.63;4970775;28;20218;-70
2023/03/04 00:18:34;;;;;;;15.40;4.33;;;;;;;5.84;100.00;102080.94;4968685;28;20197;-67
2023/03/04 00:20:59;;;;;;;18.67;4.97;;;;;;;5.84;100.00;102085.16;4973985;28;20208;-70
2023/03/04 00:23:25;;;;;;;16.20;4.37;;;;;;;5.85;100.00;102084.38;4954732;28;20204;-69
2023/03/04 00:25:50;;;;;;;18.77;4.87;;;;;;;5.86;100.00;102081.03;4970650;28;20235;-69
2023/03/04 00:28:16;;;;;;;17.30;4.10;;;;;;;5.92;100.00;102086.47;4971295;28;20212;-70
2023/03/04 00:30:41;;;;;;;15.70;3.90;;;;;;;5.95;100.00;102073.94;4967653;28;20661;-69
2023/03/04 00:33:07;;;;;;;16.20;4.30;;;;;;;5.94;100.00;102077.28;4969684;28;20212;-69
2023/03/04 00:35:32;;;;;;;14.17;4.33;;;;;;;5.94;100.00;102069.66;4974392;28;20207;-70
2023/03/04 00:37:57;;;;;;;15.53;5.07;;;;;;;5.95;100.00;102076.47;4972009;28;20200;-70
2023/03/04 00:40:23;;;;;;;12.70;4.70;;;;;;;5.94;100.00;102067.97;4965434;28;20193;-68
2023/03/04 00:42:48;;;;;;;12.60;4.10;;;;;;;5.96;100.00;102062.97;4967448;28;20263;-68
2023/03/04 00:45:14;;;;;;;11.47;4.03;;;;;;;5.94;100.00;102055.25;4961566;28;20244;-69
2023/03/04 00:47:39;;;;;;;14.87;3.53;;;;;;;5.99;100.00;102056.41;4974039;28;20192;-69
2023/03/04 00:50:05;;;;;;;12.00;3.93;;;;;;;6.00;100.00;102062.38;4972640;28;20753;-66
2023/03/04 00:52:31;;;;;;;13.50;3.63;;;;;;;6.00;100.00;102049.66;4970471;28;20212;-68
2023/03/04 00:54:56;;;;;;;15.67;3.77;;;;;;;6.01;100.00;102052.28;4971675;28;20739;-69
2023/03/04 00:57:22;;;;;;;9.83;3.23;;;;;;;6.03;100.00;102053.25;4969221;28;20215;-69
2023/03/04 00:59:47;;;;;;;10.13;3.47;;;;;;;6.02;100.00;102055.69;4968564;28;20309;-67
2023/03/04 01:02:13;;;;;;;10.60;2.90;;;;;;;6.04;100.00;102043.97;4968529;28;20190;-66
2023/03/04 01:04:38;;;;;;;9.23;2.80;;;;;;;6.05;100.00;102051.69;4972118;28;20203;-69
2023/03/04 01:07:04;;;;;;;14.50;3.43;;;;;;;6.05;100.00;102044.06;4967010;28;20201;-68
2023/03/04 01:09:29;;;;;;;13.13;3.47;;;;;;;6.05;100.00;102046.59;4968153;28;20220;-70
2023/03/04 01:11:55;;;;;;;11.27;3.07;;;;;;;6.06;100.00;102042.38;4972661;28;20200;-70
2023/03/04 01:14:21;;;;;;;9.03;2.97;;;;;;;6.05;100.00;102041.50;4965434;28;20209;-69
2023/03/04 01:16:47;;;;;;;8.97;2.80;;;;;;;6.06;100.00;102035.63;4966272;28;20255;-68
2023/03/04 01:19:14;;;;;;;8.97;2.80;;;;;;;6.07;100.00;102039.91;4963892;28;20192;-69
2023/03/04 01:21:39;;;;;;;13.73;2.77;;;;;;;6.08;100.00;102031.50;4970769;28;20202;-68
2023/03/04 01:24:05;;;;;;;11.53;3.10;;;;;;;6.08;100.00;102039.13;4965362;28;20275;-67
2023/03/04 01:26:30;;;;;;;10.80;3.50;;;;;;;6.09;100.00;102028.19;4971976;28;20225;-68
2023/03/04 01:28:56;;;;;;;6.93;2.93;;;;;;;6.09;100.00;102029.84;4965148;28;20208;-69
2023/03/04 01:31:21;;;;;;;14.13;2.87;;;;;;;6.07;100.00;102014.50;4965147;28;20192;-68
2023/03/04 01:33:47;;;;;;;9.20;2.30;;;;;;;6.09;100.00;102010.38;4972630;28;20263;-68
2023/03/04 01:36:13;;;;;;;10.13;2.10;;;;;;;6.09;100.00;102007.84;4972803;28;20279;-69
2023/03/04 01:38:38;;;;;;;13.57;2.20;;;;;;;6.10;100.00;102019.75;4969474;28;20283;-68
2023/03/04 01:41:04;;;;;;;7.63;1.87;;;;;;;6.09;100.00;102015.47;4966847;28;20216;-68
2023/03/04 01:43:30;;;;;;;9.00;1.87;;;;;;;6.09;100.00;102020.56;4970930;28;20303;-69
2023/03/04 01:45:57;;;;;;;10.00;2.17;;;;;;;6.09;100.00;102004.41;4966976;28;20551;-68
2023/03/04 01:48:27;;;;;;;9.17;1.90;;;;;;;6.10;100.00;101999.44;4987002;28;20232;-68
2023/03/04 01:50:52;;;;;;;9.00;1.90;;;;;;;6.10;100.00;102004.50;4967259;28;20192;-68
2023/03/04 01:53:23;;;;;;;8.23;1.77;;;;;;;6.09;100.00;101995.13;4970562;28;20298;-67
2023/03/04 01:55:51;;;;;;;8.50;2.23;;;;;;;6.09;100.00;101990.06;4971313;28;20208;-69
2023/03/04 01:58:17;;;;;;;7.83;1.80;;;;;;;6.09;100.00;101999.34;4971057;28;20207;-68
2023/03/04 02:00:43;;;;;;;10.67;1.80;;;;;;;6.08;100.00;101988.28;4968431;28;20689;-69
2023/03/04 02:03:14;;;;;;;7.07;1.87;;;;;;;6.08;100.00;101984.88;4967021;28;20627;-68
2023/03/04 02:05:46;;;;;;;6.33;1.53;;;;;;;6.08;100.00;101977.25;4969682;28;20222;-70
2023/03/04 02:08:13;;;;;;;10.23;2.00;;;;;;;6.09;100.00;101979.00;4967139;28;20755;-69
2023/03/04 02:10:41;;;;;;;9.30;2.03;;;;;;;6.07;100.00;101972.94;4971030;28;20208;-68
2023/03/04 02:13:07;;;;;;;15.40;2.30;;;;;;;6.07;100.00;101972.94;4971060;28;20311;-67
2023/03/04 02:15:33;;;;;;;10.67;2.00;;;;;;;6.08;100.00;101977.25;4969939;28;20196;-68
2023/03/04 02:17:58;;;;;;;12.33;1.63;;;;;;;6.08;100.00;101959.47;4967703;28;20544;-68
2023/03/04 02:20:33;;;;;;;7.33;1.70;;;;;;;6.07;100.00;101967.84;4966977;28;20554;-69
2023/03/04 02:23:21;;;;;;;8.30;1.87;;;;;;;6.06;100.00;101963.56;4965809;28;20259;-69
2023/03/04 02:26:06;;;;;;;9.63;1.97;;;;;;;6.05;100.00;101955.06;4968709;28;20218;-69
2023/03/04 02:28:32;;;;;;;11.30;1.77;;;;;;;6.06;100.00;101954.28;4951742;28;20603;-68
2023/03/04 02:30:57;;;;;;;11.77;2.00;;;;;;;6.07;100.00;101948.41;4965524;28;20212;-69
2023/03/04 02:33:22;;;;;;;15.47;1.67;;;;;;;6.07;100.00;101938.22;4969772;28;20231;-68
2023/03/04 02:35:48;;;;;;;10.67;1.90;;;;;;;6.07;100.00;101938.22;4969758;28;20250;-67
2023/03/04 02:38:14;;;;;;;7.17;1.70;;;;;;;6.08;100.00;101939.97;4966254;28;20207;-68
2023/03/04 02:40:43;;;;;;;8.47;2.13;;;;;;;6.09;100.00;101939.22;4966618;28;20200;-69
2023/03/04 02:43:11;;;;;;;8.63;1.90;;;;;;;6.10;100.00;101943.50;4964794;28;20215;-68
2023/03/04 02:45:44;;;;;;;9.70;1.87;;;;;;;6.10;100.00;101946.03;4964346;28;20189;-68
2023/03/04 02:48:11;;;;;;;9.30;1.70;;;;;;;6.11;100.00;101929.09;4974364;28;20228;-69
2023/03/04 02:50:45;;;;;;;9.67;2.07;;;;;;;6.12;100.00;101935.97;4968758;28;20206;-69
2023/03/04 02:53:10;;;;;;;6.43;1.93;;;;;;;6.12;100.00;101916.47;4971014;28;20310;-69
2023/03/04 02:55:37;;;;;;;14.57;1.87;;;;;;;6.12;100.00;101930.88;4974979;28;20239;-69
2023/03/04 02:58:02;;;;;;;14.70;1.77;;;;;;;6.13;100.00;101917.34;4976275;28;20654;-69
2023/03/04 03:00:28;;;;;;;12.07;1.80;;;;;;;6.13;100.00;101930.94;4972363;28;20191;-69
2023/03/04 03:02:55;;;;;;;11.83;1.63;;;;;;;6.12;100.00;101911.38;4977164;28;20211;-69
2023/03/04 03:05:24;;;;;;;9.50;1.80;;;;;;;6.13;100.00;101914.81;4975575;28;20193;-69
2023/03/04 03:07:49;;;;;;;9.00;1.80;;;;;;;6.12;100.00;101915.63;4972295;28;20199;-68
2023/03/04 03:10:15;;;;;;;13.60;2.47;;;;;;;6.13;100.00;101907.19;4975227;28;20839;-69
2023/03/04 03:12:41;;;;;;;7.53;1.80;;;;;;;6.13;100.00;101908.03;4974269;28;20229;-69
2023/03/04 03:15:07;;;;;;;13.33;2.03;;;;;;;6.13;100.00;101895.34;4967054;28;20185;-69
2023/03/04 03:17:33;;;;;;;14.17;2.40;;;;;;;6.15;100.00;101903.03;4953452;28;20241;-69
2023/03/04 03:19:59;;;;;;;15.50;2.17;;;;;;;6.14;100.00;101906.38;4973566;28;20255;-68
2023/03/04 03:22:25;;;;;;;13.43;2.37;;;;;;;6.14;100.00;101899.66;4969843;28;20192;-68
2023/03/04 03:24:52;;;;;;;10.67;2.63;;;;;;;6.17;100.00;101894.72;4974320;28;20196;-70
2023/03/04 03:27:17;;;;;;;7.83;2.17;;;;;;;6.17;100.00;101898.94;4972903;28;20210;-67
2023/03/04 03:29:44;;;;;;;10.43;2.30;;;;;;;6.16;100.00;101898.06;4972465;28;20223;-69
2023/03/04 03:32:10;;;;;;;12.87;2.33;;;;;;;6.19;100.00;101903.31;4956074;28;20769;-68
2023/03/04 03:34:35;;;;;;;12.23;2.70;;;;;;;6.19;100.00;101904.97;4974964;28;20274;-69
2023/03/04 03:37:01;;;;;;;13.13;2.80;;;;;;;6.18;100.00;101904.06;4972127;28;20291;-67
2023/03/04 03:39:26;;;;;;;13.47;2.77;;;;;;;6.18;100.00;101901.53;4974889;28;20323;-69
2023/03/04 03:41:52;;;;;;;9.53;2.50;;;;;;;6.18;100.00;101891.38;4974085;28;20283;-68
2023/03/04 03:44:17;;;;;;;10.13;2.47;;;;;;;6.18;100.00;101895.59;4975351;28;20252;-67
2023/03/04 03:46:43;;;;;;;13.00;2.80;;;;;;;6.18;100.00;101887.97;4973788;28;20231;-68
2023/03/04 03:49:08;;;;;;;7.50;2.40;;;;;;;6.20;100.00;101884.72;4976983;28;20243;-67
2023/03/04 03:51:33;;;;;;;9.50;2.87;;;;;;;6.21;100.00;101889.00;4971911;28;20204;-67
2023/03/04 03:53:59;;;;;;;10.13;2.67;;;;;;;6.22;100.00;101889.88;4976744;28;20224;-68
2023/03/04 03:56:24;;;;;;;9.50;2.73;;;;;;;6.22;100.00;101889.88;4968981;28;20208;-68
2023/03/04 03:58:50;;;;;;;8.43;2.77;;;;;;;6.22;100.00;101892.44;4964790;28;20283;-67
2023/03/04 04:01:15;;;;;;;9.30;2.40;;;;;;;6.21;100.00;101889.00;4975909;28;20228;-69
2023/03/04 04:03:41;;;;;;;9.00;2.13;;;;;;;6.21;100.00;101889.00;4973719;28;20266;-69
2023/03/04 04:06:06;;;;;;;9.97;2.60;;;;;;;6.22;100.00;101885.66;4973383;28;20188;-68
2023/03/04 04:08:32;;;;;;;15.40;2.90;;;;;;;6.23;100.00;101896.72;4972801;28;20287;-69
2023/03/04 04:10:57;;;;;;;7.97;2.17;;;;;;;6.21;100.00;101883.91;4974775;28;20246;-69
2023/03/04 04:13:23;;;;;;;8.10;1.83;;;;;;;6.19;100.00;101875.34;4972397;28;20251;-69
2023/03/04 04:15:50;;;;;;;10.20;2.10;;;;;;;6.16;100.00;101877.72;4973676;28;20195;-69
2023/03/04 04:18:16;;;;;;;8.20;2.63;;;;;;;6.14;100.00;101879.31;4971276;28;20553;-68
2023/03/04 04:20:41;;;;;;;9.17;2.00;;;;;;;6.12;100.00;101867.31;4973870;28;20211;-69
2023/03/04 04:23:07;;;;;;;8.27;2.23;;;;;;;6.10;100.00;101869.75;4970031;28;20221;-69
2023/03/04 04:25:32;;;;;;;9.07;2.33;;;;;;;6.10;100.00;101864.69;4974474;28;20355;-69
2023/03/04 04:27:58;;;;;;;8.20;1.90;;;;;;;6.10;100.00;101871.41;4971389;28;20481;-68
2023/03/04 04:30:23;;;;;;;10.83;2.17;;;;;;;6.12;100.00;101870.72;4978321;28;20232;-67
2023/03/04 04:32:49;;;;;;;8.60;2.33;;;;;;;6.11;100.00;101863.88;4973977;28;20216;-68
2023/03/04 04:35:14;;;;;;;8.50;2.30;;;;;;;6.13;100.00;101872.44;4975241;28;20203;-68
2023/03/04 04:37:40;;;;;;;13.10;2.60;;;;;;;6.13;100.00;101871.59;4973001;28;20279;-68
2023/03/04 04:40:06;;;;;;;9.63;2.47;;;;;;;6.14;100.00;101874.22;4976368;28;20568;-69
2023/03/04 04:42:32;;;;;;;9.43;2.50;;;;;;;6.14;100.00;101866.59;4970301;28;20212;-69
2023/03/04 04:44:57;;;;;;;13.70;2.10;;;;;;;6.15;100.00;101873.44;4972534;28;20196;-68
2023/03/04 04:47:23;;;;;;;8.30;2.70;;;;;;;6.15;100.00;101860.72;4971255;28;20200;-68
2023/03/04 04:49:48;;;;;;;10.00;2.93;;;;;;;6.17;100.00;101874.38;4976837;28;20219;-68
2023/03/04 04:52:14;;;;;;;10.07;2.90;;;;;;;6.19;100.00;101864.28;4966313;28;20200;-69
2023/03/04 04:54:39;;;;;;;11.90;2.80;;;;;;;6.20;100.00;101868.56;4973025;28;20225;-69
2023/03/04 04:57:05;;;;;;;10.57;3.10;;;;;;;6.20;100.00;101861.81;4971656;28;20212;-67
2023/03/04 04:59:30;;;;;;;12.37;2.90;;;;;;;6.19;100.00;101866.81;4970163;28;20192;-68
2023/03/04 05:01:55;;;;;;;10.50;2.87;;;;;;;6.20;100.00;101863.47;4975743;28;20200;-68
2023/03/04 05:04:21;;;;;;;10.73;2.50;;;;;;;6.20;100.00;101855.84;4968784;28;20299;-68
2023/03/04 05:06:46;;;;;;;12.37;2.33;;;;;;;6.22;100.00;101860.22;4975884;28;20394;-69
2023/03/04 05:09:12;;;;;;;8.07;2.63;;;;;;;6.22;100.00;101857.69;4967941;28;20291;-68
2023/03/04 05:11:37;;;;;;;11.93;2.50;;;;;;;6.22;100.00;101857.69;4976100;28;20206;-68
2023/03/04 05:14:03;;;;;;;9.70;2.90;;;;;;;6.25;100.00;101851.88;4970221;28;20311;-69
2023/03/04 05:16:28;;;;;;;9.53;2.43;;;;;;;6.25;100.00;101860.41;4976746;28;20311;-68
2023/03/04 05:18:54;;;;;;;9.27;2.60;;;;;;;6.22;100.00;101846.66;4971078;28;20195;-68
2023/03/04 05:21:19;;;;;;;9.57;2.80;;;;;;;6.21;100.00;101845.78;4976069;28;20720;-68
2023/03/04 05:23:45;;;;;;;12.30;3.17;;;;;;;6.21;100.00;101844.91;4968417;28;20219;-68
2023/03/04 05:26:14;;;;;;;12.73;3.00;;;;;;;6.21;100.00;101845.78;4974492;28;20211;-67
2023/03/04 05:28:39;;;;;;;9.03;2.23;;;;;;;6.22;100.00;101844.13;4972363;28;20228;-68
2023/03/04 05:31:06;;;;;;;16.93;2.90;;;;;;;6.22;100.00;101847.50;4972381;28;20674;-68
2023/03/04 05:33:31;;;;;;;9.03;2.87;;;;;;;6.21;100.00;101848.31;4973882;28;20212;-68
2023/03/04 05:35:57;;;;;;;9.30;2.53;;;;;;;6.21;100.00;101858.47;4975035;28;20188;-67
2023/03/04 05:38:24;;;;;;;9.10;2.70;;;;;;;6.23;100.00;101858.56;4969845;28;20750;-68
2023/03/04 05:40:56;;;;;;;9.27;2.30;;;;;;;6.23;100.00;101863.66;4975175;28;20763;-67
2023/03/04 05:43:22;;;;;;;6.97;2.03;;;;;;;6.19;100.00;101862.63;4972611;28;20226;-68
2023/03/04 05:45:48;;;;;;;12.10;2.30;;;;;;;6.16;100.00;101861.56;4967799;28;20204;-67
2023/03/04 05:48:13;;;;;;;10.80;2.90;;;;;;;6.11;100.00;101851.16;4970501;28;20606;-67
2023/03/04 05:50:39;;;;;;;7.50;2.87;;;;;;;6.09;100.00;101860.41;4972133;28;20200;-69
2023/03/04 05:53:04;;;;;;;9.13;2.50;;;;;;;6.10;100.00;101861.25;4973728;28;20306;-68
2023/03/04 05:55:30;;;;;;;10.17;1.97;;;;;;;6.06;100.00;101852.59;4972308;28;20193;-69
2023/03/04 05:57:56;;;;;;;9.40;2.20;;;;;;;6.05;100.00;101861.03;4969383;28;20197;-70
2023/03/04 06:00:22;;;;;;;12.67;2.53;;;;;;;6.04;100.00;101854.16;4968020;28;20204;-66
2023/03/04 06:02:48;;;;;;;13.43;3.27;;;;;;;6.03;100.00;101866.81;4973329;28;20214;-69
2023/03/04 06:05:14;;;;;;;12.87;3.13;;;;;;;6.01;100.00;101860.75;4966617;28;20208;-69
2023/03/04 06:07:42;;;;;;;15.23;3.10;;;;;;;6.01;100.00;101860.75;4976958;28;20258;-68
2023/03/04 06:10:08;;;;;;;15.47;3.50;;;;;;;5.97;100.00;101853.75;4969648;28;20221;-69
2023/03/04 06:12:34;;;;;;;9.43;3.27;;;;;;;5.98;100.00;101858.06;4974250;28;20213;-69
2023/03/04 06:14:59;;;;;;;17.47;3.03;;;;;;;5.96;100.00;101858.00;4967004;28;20689;-69
2023/03/04 06:17:25;;;;;;;16.83;4.17;;;;;;;5.95;100.00;101863.84;4970016;28;20335;-68
2023/03/04 06:19:50;;;;;;;12.83;3.20;;;;;;;5.95;100.00;101855.34;4974721;28;20246;-68
2023/03/04 06:22:16;;;;;;;21.00;3.67;;;;;;;5.94;100.00;101851.06;4967640;28;20199;-69
2023/03/04 06:24:41;;;;;;;14.27;3.80;;;;;;;5.93;100.00;101867.97;4972911;28;20669;-68
2023/03/04 06:27:07;;;;;;;14.53;4.03;;;;;;;5.92;100.00;101865.34;4975210;28;20204;-67
2023/03/04 06:29:32;;;;;;;21.50;4.63;;;;;;;5.93;100.00;101875.59;4971699;28;20226;-69
2023/03/04 06:31:58;;;;;;;21.10;3.27;;;;;;;5.92;100.00;101863.69;4975800;28;20200;-69
2023/03/04 06:34:23;;;;;;;13.80;3.10;;;;;;;5.92;100.00;101861.16;4975157;28;20216;-69
2023/03/04 06:36:49;;;;;;;19.97;4.30;;;;;;;5.94;100.00;101862.09;4976024;28;20200;-69
2023/03/04 06:39:14;;;;;;;17.60;3.90;;;;;;;5.93;100.00;101842.56;4974022;28;20195;-69
2023/03/04 06:41:40;;;;;;;13.20;3.57;;;;;;;5.93;100.00;101816.25;4979163;28;20214;-67
2023/03/04 06:44:06;;;;;;;22.87;4.17;;;;;;;5.95;100.00;101801.97;4975497;28;20224;-69
2023/03/04 06:46:33;;;;;;;13.83;3.20;;;;;;;5.95;100.00;101815.53;4974751;28;20189;-68
2023/03/04 06:48:58;;;;;;;19.77;3.90;;;;;;;5.96;100.00;101801.19;4974934;28;20690;-67
2023/03/04 06:51:24;;;;;;;24.40;3.37;;;;;;;5.94;100.00;101778.22;4977200;28;20307;-68
2023/03/04 06:53:49;;;;;;;15.50;3.43;;;;;;;5.94;100.00;101783.31;4979468;28;20257;-68
2023/03/04 06:56:15;;;;;;;24.67;3.80;;;;;;;5.93;100.00;101796.81;4971094;28;20212;-68
2023/03/04 06:58:41;;;;;;;20.23;4.03;;;;;;;5.92;100.00;101797.63;4979900;28;20743;-69
2023/03/04 07:01:15;;;;;;;18.17;3.27;;;;;;;5.94;100.00;101830.75;4962123;28;20196;-67
2023/03/04 07:03:40;;;;;;;18.87;3.43;;;;;;;5.89;100.00;101817.78;4974055;28;20227;-70
2023/03/04 07:06:08;;;;;;;20.47;3.60;;;;;;;5.85;100.00;101794.66;4971330;28;20195;-69
2023/03/04 07:08:33;;;;;;;19.93;3.20;;;;;;;5.86;100.00;101796.41;4980361;28;20310;-69
2023/03/04 07:10:59;;;;;;;18.93;2.30;;;;;;;5.86;100.00;101814.19;4971110;28;20318;-67
2023/03/04 07:13:24;;;;;;;16.73;3.03;;;;;;;5.87;100.00;101813.41;4976166;28;20251;-68
2023/03/04 07:15:49;;;;;;;16.67;3.67;;;;;;;5.87;100.00;101819.38;4974116;28;20204;-68
2023/03/04 07:18:15;;;;;;;16.33;3.13;;;;;;;5.87;100.00;101823.56;4976809;28;20672;-68
2023/03/04 07:20:40;;;;;;;10.93;3.23;;;;;;;5.89;100.00;101829.63;4971871;28;20259;-69
2023/03/04 07:23:06;;;;;;;18.90;3.50;;;;;;;5.92;100.00;101850.09;4972297;28;20233;-69
2023/03/04 07:25:31;;;;;;;15.73;3.17;;;;;;;5.90;100.00;101854.25;4974465;28;20204;-69
2023/03/04 07:27:57;;;;;;;14.53;3.13;;;;;;;5.92;100.00;101873.84;4974074;28;20196;-68
2023/03/04 07:30:22;;;;;;;23.70;3.07;;;;;;;5.92;100.00;101880.59;4972556;28;20590;-68
2023/03/04 07:32:48;;;;;;;14.27;3.13;;;;;;;5.89;100.00;101886.38;4976115;28;20219;-69
2023/03/04 07:35:13;;;;;;;13.10;2.77;;;;;;;5.89;100.00;101880.44;4977945;28;20208;-69
2023/03/04 07:37:39;;;;;;;12.63;2.40;;;;;;;5.92;100.00;101878.94;4978195;28;20207;-68
2023/03/04 07:40:07;;;;;;;12.97;2.67;;;;;;;5.93;100.00;101839.13;4973119;28;20210;-71
2023/03/04 07:42:32;;;;;;;13.93;2.90;;;;;;;5.95;100.00;101837.56;4971548;28;20220;-69
2023/03/04 07:45:05;;;;;;;12.73;2.37;;;;;;;5.98;100.00;101846.22;4958463;28;20666;-69
2023/03/04 07:47:30;;;;;;;17.73;3.13;;;;;;;6.00;100.00;101862.44;4969252;28;20265;-66
2023/03/04 07:49:56;;;;;;;10.80;2.37;;;;;;;6.00;100.00;101875.16;4974489;28;20217;-70
2023/03/04 07:52:21;;;;;;;15.67;2.27;;;;;;;6.00;100.00;101892.06;4975947;28;20283;-68
2023/03/04 07:54:47;;;;;;;9.33;2.43;;;;;;;5.98;100.00;101886.03;4978711;28;20194;-69
2023/03/04 07:57:12;;;;;;;13.33;2.23;;;;;;;6.02;100.00;101865.94;4969396;28;20679;-69
2023/03/04 07:59:38;;;;;;;16.93;2.90;;;;;;;6.00;100.00;101864.09;4974796;28;20201;-67
2023/03/04 08:02:03;;;;;;;17.20;2.43;;;;;;;5.99;100.00;101854.72;4969493;28;20618;-70
2023/03/04 08:04:29;;;;;;;13.77;2.20;;;;;;;6.00;100.00;101843.78;4978765;28;20618;-69
2023/03/04 08:06:54;;;;;;;12.90;2.63;;;;;;;5.98;100.00;101863.16;4971102;28;20583;-68
2023/03/04 08:09:19;;;;;;;15.40;3.40;;;;;;;6.01;100.00;101876.00;4972787;28;20693;-69
2023/03/04 08:11:45;;;;;;;14.37;2.23;;;;;;;6.02;100.00;101871.00;4970082;28;20654;-68
2023/03/04 08:14:12;;;;;;;11.07;2.17;;;;;;;6.05;100.00;101880.47;4975745;28;20220;-66
2023/03/04 08:16:38;;;;;;;12.07;2.07;;;;;;;6.05;100.00;101886.44;4973882;28;20614;-69
2023/03/04 08:19:04;;;;;;;13.87;2.93;;;;;;;6.13;100.00;101910.59;4969616;28;20196;-69
2023/03/04 08:21:31;;;;;;;14.37;3.37;;;;;;;6.11;100.00;101904.56;4973895;28;20207;-69
2023/03/04 08:24:00;;;;;;;16.37;2.47;;;;;;;6.08;100.00;101888.28;4973385;28;20220;-69
2023/03/04 08:26:29;;;;;;;16.57;3.23;;;;;;;6.09;100.00;101892.56;4976688;28;20184;-69
2023/03/04 08:28:56;;;;;;;15.40;3.27;;;;;;;6.01;100.00;101876.00;4991456;28;20231;-69
2023/03/04 08:31:23;;;;;;;19.57;3.90;;;;;;;6.02;100.00;101877.75;4987690;28;20210;-69
2023/03/04 08:33:50;;;;;;;18.30;3.13;;;;;;;6.04;100.00;101873.66;4988112;28;20249;-69
2023/03/04 08:36:15;;;;;;;14.93;3.63;;;;;;;5.99;100.00;101872.53;4987610;28;20206;-67
2023/03/04 08:38:41;;;;;;;19.43;3.63;;;;;;;5.96;100.00;101875.78;4989793;28;20195;-70
2023/03/04 08:41:07;;;;;;;19.03;3.23;;;;;;;5.95;100.00;101878.22;4993300;28;20235;-69
2023/03/04 08:43:33;;;;;;;21.40;3.60;;;;;;;5.89;100.00;101860.97;4988857;28;20212;-68
2023/03/04 08:45:59;;;;;;;14.83;3.03;;;;;;;5.93;100.00;101864.53;4994000;28;20203;-69
2023/03/04 08:48:25;;;;;;;21.73;4.17;;;;;;;5.90;100.00;101866.94;4989983;28;20250;-69
2023/03/04 08:50:51;;;;;;;20.80;3.50;;;;;;;5.93;100.00;101874.72;4994194;28;20234;-68
2023/03/04 08:53:17;;;;;;;25.77;4.70;;;;;;;6.00;100.00;101899.69;4987034;28;20262;-68
2023/03/04 08:55:43;;;;;;;17.03;2.70;;;;;;;5.96;100.00;101901.19;4991724;28;20191;-69
2023/03/04 08:58:10;;;;;;;22.33;3.50;;;;;;;6.01;100.00;101911.59;4969622;28;20195;-69
2023/03/04 09:00:39;;;;;;;24.03;3.80;;;;;;;5.98;100.00;101906.38;4996688;28;20250;-68
2023/03/04 09:03:05;;;;;;;21.80;3.93;;;;;;;5.97;100.00;101907.13;4984415;28;20223;-68
2023/03/04 09:05:31;;;;;;;21.53;3.80;;;;;;;6.00;100.00;101905.66;4996187;28;20661;-68
2023/03/04 09:07:57;;;;;;;20.50;3.77;;;;;;;6.04;100.00;101901.59;4984831;28;20202;-68
2023/03/04 09:10:22;;;;;;;16.13;3.40;;;;;;;6.04;100.00;101899.91;4994460;28;20216;-68
2023/03/04 09:12:48;;;;;;;16.20;3.47;;;;;;;6.07;100.00;101891.59;4990049;28;20219;-67
2023/03/04 09:15:13;;;;;;;27.70;4.50;;;;;;;6.06;100.00;101883.09;4993872;28;20262;-68
2023/03/04 09:17:39;;;;;;;17.50;4.43;;;;;;;6.09;100.00;101875.66;4988063;28;20652;-68
2023/03/04 09:20:09;;;;;;;16.37;3.73;;;;;;;6.13;100.00;101861.44;4993066;28;20254;-68
2023/03/04 09:22:35;;;;;;;17.03;3.13;;;;;;;6.11;100.00;101820.66;4995947;28;20211;-68
2023/03/04 09:25:00;;;;;;;23.33;4.33;;;;;;;6.09;100.00;101803.59;4994352;28;20635;-69
2023/03/04 09:27:26;;;;;;;15.63;3.57;;;;;;;6.09;100.00;101798.50;4986518;28;20235;-68
2023/03/04 09:29:51;;;;;;;21.23;3.17;;;;;;;6.16;100.00;101801.44;4986453;28;20233;-70
2023/03/04 09:32:17;;;;;;;20.70;3.40;;;;;;;6.13;100.00;101786.00;4988437;28;20193;-70
2023/03/04 09:34:42;;;;;;;16.70;3.40;;;;;;;6.16;100.00;101806.53;4986067;28;20274;-67
2023/03/04 09:37:08;;;;;;;12.93;3.80;;;;;;;6.16;100.00;101810.72;4987811;28;20235;-69
2023/03/04 09:39:33;;;;;;;18.93;3.93;;;;;;;6.15;100.00;101806.44;4987891;28;20203;-69
2023/03/04 09:41:59;;;;;;;17.70;3.63;;;;;;;6.16;100.00;101811.59;4993800;28;20198;-68
2023/03/04 09:44:32;;;;;;;23.20;3.83;;;;;;;6.20;100.00;101821.16;4983072;28;20655;-68
2023/03/04 09:47:01;;;;;;;21.90;3.53;;;;;;;6.14;100.00;101810.66;4992474;28;20214;-68
2023/03/04 09:49:27;;;;;;;19.23;3.97;;;;;;;6.19;100.00;101806.69;4986081;28;20589;-69
2023/03/04 09:52:08;;;;;;;22.80;4.57;;;;;;;6.26;100.00;101812.97;4993039;28;20198;-70
2023/03/04 09:54:58;;;;;;;21.57;4.30;;;;;;;6.35;100.00;101813.44;4987583;28;20191;-68
2023/03/04 09:57:48;;;;;;;25.20;4.00;;;;;;;6.35;100.00;101818.53;4989317;28;20204;-69
2023/03/04 10:00:22;;;;;;;19.90;3.40;;;;;;;6.39;100.00;101816.22;4982517;28;20674;-69
2023/03/04 10:03:16;;;;;;;18.37;3.90;;;;;;;6.35;100.00;101780.38;4988695;28;20214;-69
2023/03/04 10:05:53;;;;;;;26.37;4.13;;;;;;;6.38;100.00;101730.53;4992993;28;20199;-69
2023/03/04 10:08:45;;;;;;;15.17;3.23;;;;;;;6.34;100.00;101698.13;4987106;28;20242;-68
2023/03/04 10:11:25;;;;;;;25.33;3.93;;;;;;;6.31;100.00;101666.59;4993863;28;20214;-69
2023/03/04 10:14:03;;;;;;;19.87;3.50;;;;;;;6.30;100.00;101662.28;4987961;28;20227;-67
2023/03/04 10:16:36;;;;;;;13.80;3.13;;;;;;;6.36;100.00;101647.34;4995530;28;20200;-67
2023/03/04 10:19:14;;;;;;;19.13;4.23;;;;;;;6.40;100.00;101626.34;4984679;28;20216;-69
2023/03/04 10:21:45;;;;;;;23.10;4.10;;;;;;;6.45;100.00;101635.06;4997055;28;20210;-69
2023/03/04 10:24:21;;;;;;;19.20;4.40;;;;;;;6.51;100.00;101648.06;4984463;28;20223;-68
2023/03/04 10:27:11;;;;;;;19.87;3.67;;;;;;;6.58;100.00;101656.06;4990775;28;20229;-68
2023/03/04 10:29:36;;;;;;;23.07;4.30;;;;;;;6.55;100.00;101655.06;4984760;28;20242;-69
2023/03/04 10:32:01;;;;;;;16.17;3.07;;;;;;;6.45;100.00;101673.22;4991376;28;20227;-68
2023/03/04 10:34:27;;;;;;;18.63;4.07;;;;;;;6.50;100.00;101670.06;4986487;28;20760;-69
2023/03/04 10:37:06;;;;;;;19.97;3.90;;;;;;;6.45;100.00;101630.84;4991067;28;20206;-69
2023/03/04 10:39:35;;;;;;;22.13;3.53;;;;;;;6.48;100.00;101642.81;4985871;28;20670;-67
2023/03/04 10:42:21;;;;;;;24.60;3.80;;;;;;;6.54;100.00;101666.03;4973015;28;20199;-68
2023/03/04 10:44:54;;;;;;;22.10;4.00;;;;;;;6.61;100.00;101676.59;4983443;28;20199;-68
2023/03/04 10:47:24;;;;;;;18.60;3.97;;;;;;;6.50;100.00;101661.59;4987312;28;20294;-69
2023/03/04 10:50:01;;;;;;;18.13;4.17;;;;;;;6.54;100.00;101659.25;4987072;28;20760;-69
2023/03/04 10:52:45;;;;;;;18.67;4.13;;;;;;;6.64;100.00;101663.13;4993551;28;20200;-68
2023/03/04 10:55:17;;;;;;;17.90;3.73;;;;;;;6.70;100.00;101669.38;4984667;28;20207;-66
2023/03/04 10:57:47;;;;;;;20.20;3.97;;;;;;;6.75;100.00;101693.38;4984672;28;20202;-69
2023/03/04 11:00:30;;;;;;;18.30;3.30;;;;;;;6.76;100.00;101700.22;4983108;28;20192;-67
2023/03/04 11:03:18;;;;;;;17.17;3.63;;;;;;;6.79;100.00;101638.41;4993926;28;20212;-68
2023/03/04 11:05:43;;;;;;;17.60;3.43;;;;;;;6.80;100.00;101635.06;4986283;28;20249;-68
2023/03/04 11:08:18;;;;;;;18.80;4.10;;;;;;;6.78;100.00;101616.31;4990404;28;20669;-67
2023/03/04 11:10:44;;;;;;;19.13;3.90;;;;;;;6.73;100.00;101625.41;4983186;28;20293;-68
2023/03/04 11:13:21;;;;;;;22.57;4.17;;;;;;;6.69;100.00;101660.03;4987833;28;20259;-68
2023/03/04 11:16:02;;;;;;;17.77;3.50;;;;;;;6.64;100.00;101636.00;4989370;28;20193;-69
2023/03/04 11:18:39;;;;;;;18.77;4.50;;;;;;;6.70;100.00;101618.50;4997842;28;20208;-69
2023/03/04 11:21:06;;;;;;;20.10;3.90;;;;;;;6.75;100.00;101595.78;5000088;28;20286;-69